sensor_id;sensor_type;location;lat;lon;timestamp;pressure;altitude;pressure_sealevel;temperature;humidity
42285;BME280;27942;47.510;18.966;2023-11-19T00:01:31;21045.16;;;-145.34;100.00
42285;BME280;27942;47.510;18.966;2023-11-19T00:03:58;20992.03;;;-145.34;100.00
42285;BME280;27942;47.510;18.966;2023-11-19T00:06:23;21041.06;;;-145.34;100.00
42285;BME280;27942;47.510;18.966;2023-11-19T00:08:49;21065.56;;;-145.34;100.00
42285;BME280;27942;47.510;18.966;2023-11-19T00:11:15;21069.66;;;-145.34;100.00
42285;BME280;27942;47.510;18.966;2023-11-19T00:13:41;21053.31;;;-145.34;100.00
42285;BME280;27942;47.510;18.966;2023-11-19T00:16:07;21045.16;;;-145.34;100.00
42285;BME280;27942;47.510;18.966;2023-11-19T00:18:32;21059.44;;;-145.34;100.00
42285;BME280;27942;47.510;18.966;2023-11-19T00:20:58;21045.16;;;-145.34;100.00
42285;BME280;27942;47.510;18.966;2023-11-19T00:23:23;21039.03;;;-145.34;100.00
42285;BME280;27942;47.510;18.966;2023-11-19T00:25:49;21049.22;;;-145.34;100.00
42285;BME280;27942;47.510;18.966;2023-11-19T00:28:14;21014.50;;;-145.34;100.00
42285;BME280;27942;47.510;18.966;2023-11-19T00:30:39;20959.34;;;-145.34;100.00
42285;BME280;27942;47.510;18.966;2023-11-19T00:33:06;21002.25;;;-145.34;100.00
42285;BME280;27942;47.510;18.966;2023-11-19T00:35:31;20953.22;;;-145.34;100.00
42285;BME280;27942;47.510;18.966;2023-11-19T00:37:58;20998.16;;;-145.34;100.00
42285;BME280;27942;47.510;18.966;2023-11-19T00:40:23;20957.31;;;-145.34;100.00
42285;BME280;27942;47.510;18.966;2023-11-19T00:42:49;20990.00;;;-145.34;100.00
42285;BME280;27942;47.510;18.966;2023-11-19T00:45:14;21057.41;;;-145.34;100.00
42285;BME280;27942;47.510;18.966;2023-11-19T00:47:40;21026.75;;;-145.34;100.00
42285;BME280;27942;47.510;18.966;2023-11-19T00:50:06;21024.72;;;-145.34;100.00
42285;BME280;27942;47.510;18.966;2023-11-19T00:52:35;21000.22;;;-145.34;100.00
42285;BME280;27942;47.510;18.966;2023-11-19T00:55:01;21008.38;;;-145.34;100.00
42285;BME280;27942;47.510;18.966;2023-11-19T00:57:26;20975.69;;;-145.34;100.00
42285;BME280;27942;47.510;18.966;2023-11-19T00:59:52;20967.53;;;-145.34;100.00
42285;BME280;27942;47.510;18.966;2023-11-19T01:02:17;21012.47;;;-145.34;100.00
42285;BME280;27942;47.510;18.966;2023-11-19T01:04:43;20996.13;;;-145.34;100.00
42285;BME280;27942;47.510;18.966;2023-11-19T01:07:09;21006.34;;;-145.34;100.00
42285;BME280;27942;47.510;18.966;2023-11-19T01:09:38;20955.28;;;-145.34;100.00
42285;BME280;27942;47.510;18.966;2023-11-19T01:12:03;21016.56;;;-145.34;100.00
42285;BME280;27942;47.510;18.966;2023-11-19T01:14:29;20983.88;;;-145.34;100.00
42285;BME280;27942;47.510;18.966;2023-11-19T01:16:55;20994.09;;;-145.34;100.00
42285;BME280;27942;47.510;18.966;2023-11-19T01:19:21;20936.88;;;-145.34;100.00
42285;BME280;27942;47.510;18.966;2023-11-19T01:21:47;20943.03;;;-145.34;100.00
42285;BME280;27942;47.510;18.966;2023-11-19T01:24:13;20981.81;;;-145.34;100.00
42285;BME280;27942;47.510;18.966;2023-11-19T01:26:39;20975.69;;;-145.34;100.00
42285;BME280;27942;47.510;18.966;2023-11-19T01:29:11;20932.81;;;-145.34;100.00
42285;BME280;27942;47.510;18.966;2023-11-19T01:31:39;20947.09;;;-145.34;100.00
42285;BME280;27942;47.510;18.966;2023-11-19T01:34:05;20943.03;;;-145.34;100.00
42285;BME280;27942;47.510;18.966;2023-11-19T01:36:30;20969.56;;;-145.34;100.00
42285;BME280;27942;47.510;18.966;2023-11-19T01:38:55;20975.69;;;-145.34;100.00
42285;BME280;27942;47.510;18.966;2023-11-19T01:41:21;20912.38;;;-145.34;100.00
42285;BME280;27942;47.510;18.966;2023-11-19T01:43:46;20967.53;;;-145.34;100.00
42285;BME280;27942;47.510;18.966;2023-11-19T01:46:12;20959.34;;;-145.34;100.00
42285;BME280;27942;47.510;18.966;2023-11-19T01:48:41;20996.13;;;-145.34;100.00
42285;BME280;27942;47.510;18.966;2023-11-19T01:51:08;20990.00;;;-145.34;100.00
42285;BME280;27942;47.510;18.966;2023-11-19T01:53:35;20945.06;;;-145.34;100.00
42285;BME280;27942;47.510;18.966;2023-11-19T01:56:02;20973.66;;;-145.34;100.00
42285;BME280;27942;47.510;18.966;2023-11-19T01:58:28;20957.31;;;-145.34;100.00
42285;BME280;27942;47.510;18.966;2023-11-19T02:00:56;20992.03;;;-145.34;100.00
42285;BME280;27942;47.510;18.966;2023-11-19T02:03:21;21000.22;;;-145.34;100.00
42285;BME280;27942;47.510;18.966;2023-11-19T02:05:48;20943.03;;;-145.34;100.00
42285;BME280;27942;47.510;18.966;2023-11-19T02:08:14;20957.31;;;-145.34;100.00
42285;BME280;27942;47.510;18.966;2023-11-19T02:10:40;20916.47;;;-145.34;100.00
42285;BME280;27942;47.510;18.966;2023-11-19T02:13:05;20965.50;;;-145.34;100.00
42285;BME280;27942;47.510;18.966;2023-11-19T02:15:32;20955.28;;;-145.34;100.00
42285;BME280;27942;47.510;18.966;2023-11-19T02:18:17;20943.03;;;-145.34;100.00
42285;BME280;27942;47.510;18.966;2023-11-19T02:20:42;20959.34;;;-145.34;100.00
42285;BME280;27942;47.510;18.966;2023-11-19T02:23:08;20912.38;;;-145.34;100.00
42285;BME280;27942;47.510;18.966;2023-11-19T02:25:34;20938.94;;;-145.34;100.00
42285;BME280;27942;47.510;18.966;2023-11-19T02:28:01;20949.16;;;-145.34;100.00
42285;BME280;27942;47.510;18.966;2023-11-19T02:30:27;20947.09;;;-145.34;100.00
42285;BME280;27942;47.510;18.966;2023-11-19T02:32:58;20953.22;;;-145.34;100.00
42285;BME280;27942;47.510;18.966;2023-11-19T02:35:25;20932.81;;;-145.34;100.00
42285;BME280;27942;47.510;18.966;2023-11-19T02:37:51;21008.38;;;-145.34;100.00
42285;BME280;27942;47.510;18.966;2023-11-19T02:40:16;20924.63;;;-145.34;100.00
42285;BME280;27942;47.510;18.966;2023-11-19T02:42:42;20934.84;;;-145.34;100.00
42285;BME280;27942;47.510;18.966;2023-11-19T02:45:08;20971.63;;;-145.34;100.00
42285;BME280;27942;47.510;18.966;2023-11-19T02:47:42;20928.72;;;-145.34;100.00
42285;BME280;27942;47.510;18.966;2023-11-19T02:50:09;20926.69;;;-145.34;100.00
42285;BME280;27942;47.510;18.966;2023-11-19T02:52:43;20953.22;;;-145.34;100.00
42285;BME280;27942;47.510;18.966;2023-11-19T02:55:12;20879.69;;;-145.34;100.00
42285;BME280;27942;47.510;18.966;2023-11-19T02:57:41;20922.59;;;-145.34;100.00
42285;BME280;27942;47.510;18.966;2023-11-19T03:00:16;20996.13;;;-145.34;100.00
42285;BME280;27942;47.510;18.966;2023-11-19T03:02:43;20936.88;;;-145.34;100.00
42285;BME280;27942;47.510;18.966;2023-11-19T03:05:15;20961.41;;;-145.34;100.00
42285;BME280;27942;47.510;18.966;2023-11-19T03:07:41;20951.19;;;-145.34;100.00
42285;BME280;27942;47.510;18.966;2023-11-19T03:10:10;20994.09;;;-145.34;100.00
42285;BME280;27942;47.510;18.966;2023-11-19T03:12:39;20910.34;;;-145.34;100.00
42285;BME280;27942;47.510;18.966;2023-11-19T03:15:06;20951.19;;;-145.34;100.00
42285;BME280;27942;47.510;18.966;2023-11-19T03:17:32;20959.34;;;-145.34;100.00
42285;BME280;27942;47.510;18.966;2023-11-19T03:19:57;20928.72;;;-145.34;100.00
42285;BME280;27942;47.510;18.966;2023-11-19T03:22:23;20930.75;;;-145.34;100.00
42285;BME280;27942;47.510;18.966;2023-11-19T03:24:51;20930.75;;;-145.34;100.00
42285;BME280;27942;47.510;18.966;2023-11-19T03:27:16;20926.69;;;-145.34;100.00
42285;BME280;27942;47.510;18.966;2023-11-19T03:29:42;20945.06;;;-145.34;100.00
42285;BME280;27942;47.510;18.966;2023-11-19T03:32:07;20947.09;;;-145.34;100.00
42285;BME280;27942;47.510;18.966;2023-11-19T03:34:32;20947.09;;;-145.34;100.00
42285;BME280;27942;47.510;18.966;2023-11-19T03:36:58;20969.56;;;-145.34;100.00
42285;BME280;27942;47.510;18.966;2023-11-19T03:39:24;20894.00;;;-145.34;100.00
42285;BME280;27942;47.510;18.966;2023-11-19T03:41:50;20985.91;;;-145.34;100.00
42285;BME280;27942;47.510;18.966;2023-11-19T03:44:16;20963.44;;;-145.34;100.00
42285;BME280;27942;47.510;18.966;2023-11-19T03:46:42;20943.03;;;-145.34;100.00
42285;BME280;27942;47.510;18.966;2023-11-19T03:49:07;20985.91;;;-145.34;100.00
42285;BME280;27942;47.510;18.966;2023-11-19T03:51:33;20894.00;;;-145.34;100.00
42285;BME280;27942;47.510;18.966;2023-11-19T03:54:00;21000.22;;;-145.34;100.00
42285;BME280;27942;47.510;18.966;2023-11-19T03:56:25;20996.13;;;-145.34;100.00
42285;BME280;27942;47.510;18.966;2023-11-19T03:58:52;20959.34;;;-145.34;100.00
42285;BME280;27942;47.510;18.966;2023-11-19T04:01:17;20971.63;;;-145.34;100.00
42285;BME280;27942;47.510;18.966;2023-11-19T04:03:43;20947.09;;;-145.34;100.00
42285;BME280;27942;47.510;18.966;2023-11-19T04:06:08;20963.44;;;-145.34;100.00
42285;BME280;27942;47.510;18.966;2023-11-19T04:08:34;20971.63;;;-145.34;100.00
42285;BME280;27942;47.510;18.966;2023-11-19T04:11:02;20961.41;;;-145.34;100.00
42285;BME280;27942;47.510;18.966;2023-11-19T04:13:28;20959.34;;;-145.34;100.00
42285;BME280;27942;47.510;18.966;2023-11-19T04:15:53;20992.03;;;-145.34;100.00
42285;BME280;27942;47.510;18.966;2023-11-19T04:18:19;20951.19;;;-145.34;100.00
42285;BME280;27942;47.510;18.966;2023-11-19T04:20:44;21000.22;;;-145.34;100.00
42285;BME280;27942;47.510;18.966;2023-11-19T04:23:09;20967.53;;;-145.34;100.00
42285;BME280;27942;47.510;18.966;2023-11-19T04:25:35;20959.34;;;-145.34;100.00
42285;BME280;27942;47.510;18.966;2023-11-19T04:28:00;20951.19;;;-145.34;100.00
42285;BME280;27942;47.510;18.966;2023-11-19T04:30:27;20908.28;;;-145.34;100.00
42285;BME280;27942;47.510;18.966;2023-11-19T04:32:52;20930.75;;;-145.34;100.00
42285;BME280;27942;47.510;18.966;2023-11-19T04:35:18;20936.88;;;-145.34;100.00
42285;BME280;27942;47.510;18.966;2023-11-19T04:37:44;20940.97;;;-145.34;100.00
42285;BME280;27942;47.510;18.966;2023-11-19T04:40:10;20977.75;;;-145.34;100.00
42285;BME280;27942;47.510;18.966;2023-11-19T04:42:37;20955.28;;;-145.34;100.00
42285;BME280;27942;47.510;18.966;2023-11-19T04:45:05;20951.19;;;-145.34;100.00
42285;BME280;27942;47.510;18.966;2023-11-19T04:47:32;20934.84;;;-145.34;100.00
42285;BME280;27942;47.510;18.966;2023-11-19T04:49:58;20961.41;;;-145.34;100.00
42285;BME280;27942;47.510;18.966;2023-11-19T04:52:23;20918.50;;;-145.34;100.00
42285;BME280;27942;47.510;18.966;2023-11-19T04:54:49;20934.84;;;-145.34;100.00
42285;BME280;27942;47.510;18.966;2023-11-19T04:57:14;20940.97;;;-145.34;100.00
42285;BME280;27942;47.510;18.966;2023-11-19T04:59:40;20916.47;;;-145.34;100.00
42285;BME280;27942;47.510;18.966;2023-11-19T05:02:06;20914.41;;;-145.34;100.00
42285;BME280;27942;47.510;18.966;2023-11-19T05:04:33;20898.09;;;-145.34;100.00
42285;BME280;27942;47.510;18.966;2023-11-19T05:06:58;20959.34;;;-145.34;100.00
42285;BME280;27942;47.510;18.966;2023-11-19T05:09:24;20949.16;;;-145.34;100.00
42285;BME280;27942;47.510;18.966;2023-11-19T05:11:49;20947.09;;;-145.34;100.00
42285;BME280;27942;47.510;18.966;2023-11-19T05:14:14;20945.06;;;-145.34;100.00
42285;BME280;27942;47.510;18.966;2023-11-19T05:16:40;20926.69;;;-145.34;100.00
42285;BME280;27942;47.510;18.966;2023-11-19T05:19:08;20885.81;;;-145.34;100.00
42285;BME280;27942;47.510;18.966;2023-11-19T05:21:34;20906.25;;;-145.34;100.00
42285;BME280;27942;47.510;18.966;2023-11-19T05:24:02;20955.28;;;-145.34;100.00
42285;BME280;27942;47.510;18.966;2023-11-19T05:26:29;20949.16;;;-145.34;100.00
42285;BME280;27942;47.510;18.966;2023-11-19T05:28:55;20943.03;;;-145.34;100.00
42285;BME280;27942;47.510;18.966;2023-11-19T05:31:20;20914.41;;;-145.34;100.00
42285;BME280;27942;47.510;18.966;2023-11-19T05:33:45;20951.19;;;-145.34;100.00
42285;BME280;27942;47.510;18.966;2023-11-19T05:36:11;20971.63;;;-145.34;100.00
42285;BME280;27942;47.510;18.966;2023-11-19T05:38:38;20951.19;;;-145.34;100.00
42285;BME280;27942;47.510;18.966;2023-11-19T05:41:03;20940.97;;;-145.34;100.00
42285;BME280;27942;47.510;18.966;2023-11-19T05:43:30;20930.75;;;-145.34;100.00
42285;BME280;27942;47.510;18.966;2023-11-19T05:45:55;20961.41;;;-145.34;100.00
42285;BME280;27942;47.510;18.966;2023-11-19T05:48:21;20922.59;;;-145.34;100.00
42285;BME280;27942;47.510;18.966;2023-11-19T05:50:46;20936.88;;;-145.34;100.00
42285;BME280;27942;47.510;18.966;2023-11-19T05:53:12;20922.59;;;-145.34;100.00
42285;BME280;27942;47.510;18.966;2023-11-19T05:55:40;20971.63;;;-145.34;100.00
42285;BME280;27942;47.510;18.966;2023-11-19T05:58:12;20957.31;;;-145.34;100.00
42285;BME280;27942;47.510;18.966;2023-11-19T06:00:38;20953.22;;;-145.34;100.00
42285;BME280;27942;47.510;18.966;2023-11-19T06:03:05;20934.84;;;-145.34;100.00
42285;BME280;27942;47.510;18.966;2023-11-19T06:05:31;20992.03;;;-145.34;100.00
42285;BME280;27942;47.510;18.966;2023-11-19T06:07:56;20934.84;;;-145.34;100.00
42285;BME280;27942;47.510;18.966;2023-11-19T06:10:23;20943.03;;;-145.34;100.00
42285;BME280;27942;47.510;18.966;2023-11-19T06:12:54;20945.06;;;-145.34;100.00
42285;BME280;27942;47.510;18.966;2023-11-19T06:15:21;20943.03;;;-145.34;100.00
42285;BME280;27942;47.510;18.966;2023-11-19T06:17:46;20949.16;;;-145.34;100.00
42285;BME280;27942;47.510;18.966;2023-11-19T06:20:12;20926.69;;;-145.34;100.00
42285;BME280;27942;47.510;18.966;2023-11-19T06:22:39;21008.38;;;-145.34;100.00
42285;BME280;27942;47.510;18.966;2023-11-19T06:25:07;20945.06;;;-145.34;100.00
42285;BME280;27942;47.510;18.966;2023-11-19T06:27:33;20918.50;;;-145.34;100.00
42285;BME280;27942;47.510;18.966;2023-11-19T06:29:59;20967.53;;;-145.34;100.00
42285;BME280;27942;47.510;18.966;2023-11-19T06:32:24;20957.31;;;-145.34;100.00
42285;BME280;27942;47.510;18.966;2023-11-19T06:34:49;20975.69;;;-145.34;100.00
42285;BME280;27942;47.510;18.966;2023-11-19T06:37:15;20912.38;;;-145.34;100.00
42285;BME280;27942;47.510;18.966;2023-11-19T06:39:40;20959.34;;;-145.34;100.00
42285;BME280;27942;47.510;18.966;2023-11-19T06:42:06;21002.25;;;-145.34;100.00
42285;BME280;27942;47.510;18.966;2023-11-19T06:44:32;20967.53;;;-145.34;100.00
42285;BME280;27942;47.510;18.966;2023-11-19T06:46:57;21016.56;;;-145.34;100.00
42285;BME280;27942;47.510;18.966;2023-11-19T06:49:23;21000.22;;;-145.34;100.00
42285;BME280;27942;47.510;18.966;2023-11-19T06:51:49;20979.78;;;-145.34;100.00
42285;BME280;27942;47.510;18.966;2023-11-19T06:54:15;20963.44;;;-145.34;100.00
42285;BME280;27942;47.510;18.966;2023-11-19T06:56:41;21034.94;;;-145.34;100.00
42285;BME280;27942;47.510;18.966;2023-11-19T06:59:07;21016.56;;;-145.34;100.00
42285;BME280;27942;47.510;18.966;2023-11-19T07:01:36;21016.56;;;-145.34;100.00
42285;BME280;27942;47.510;18.966;2023-11-19T07:04:02;21026.75;;;-145.34;100.00
42285;BME280;27942;47.510;18.966;2023-11-19T07:06:34;20990.00;;;-145.34;100.00
42285;BME280;27942;47.510;18.966;2023-11-19T07:09:00;20987.97;;;-145.34;100.00
42285;BME280;27942;47.510;18.966;2023-11-19T07:11:34;21006.34;;;-145.34;100.00
42285;BME280;27942;47.510;18.966;2023-11-19T07:14:00;21014.50;;;-145.34;100.00
42285;BME280;27942;47.510;18.966;2023-11-19T07:16:25;21002.25;;;-145.34;100.00
42285;BME280;27942;47.510;18.966;2023-11-19T07:18:51;21026.75;;;-145.34;100.00
42285;BME280;27942;47.510;18.966;2023-11-19T07:21:16;21008.38;;;-145.34;100.00
42285;BME280;27942;47.510;18.966;2023-11-19T07:23:42;21016.56;;;-145.34;100.00
42285;BME280;27942;47.510;18.966;2023-11-19T07:26:07;21034.94;;;-145.34;100.00
42285;BME280;27942;47.510;18.966;2023-11-19T07:28:36;21006.34;;;-145.34;100.00
42285;BME280;27942;47.510;18.966;2023-11-19T07:31:01;21026.75;;;-145.34;100.00
42285;BME280;27942;47.510;18.966;2023-11-19T07:33:27;21006.34;;;-145.34;100.00
42285;BME280;27942;47.510;18.966;2023-11-19T07:35:52;21053.31;;;-145.34;100.00
42285;BME280;27942;47.510;18.966;2023-11-19T07:38:18;21039.03;;;-145.34;100.00
42285;BME280;27942;47.510;18.966;2023-11-19T07:40:43;21006.34;;;-145.34;100.00
42285;BME280;27942;47.510;18.966;2023-11-19T07:43:09;20996.13;;;-145.34;100.00
42285;BME280;27942;47.510;18.966;2023-11-19T07:45:34;21026.75;;;-145.34;100.00
42285;BME280;27942;47.510;18.966;2023-11-19T07:47:59;21020.63;;;-145.34;100.00
42285;BME280;27942;47.510;18.966;2023-11-19T07:50:26;20947.09;;;-145.34;100.00
42285;BME280;27942;47.510;18.966;2023-11-19T07:52:52;21014.50;;;-145.34;100.00
42285;BME280;27942;47.510;18.966;2023-11-19T07:55:17;20987.97;;;-145.34;100.00
42285;BME280;27942;47.510;18.966;2023-11-19T07:57:42;20996.13;;;-145.34;100.00
42285;BME280;27942;47.510;18.966;2023-11-19T08:00:08;20971.63;;;-145.34;100.00
42285;BME280;27942;47.510;18.966;2023-11-19T08:02:37;20977.75;;;-145.34;100.00
42285;BME280;27942;47.510;18.966;2023-11-19T08:05:04;21004.28;;;-145.34;100.00
42285;BME280;27942;47.510;18.966;2023-11-19T08:07:29;21002.25;;;-145.34;100.00
42285;BME280;27942;47.510;18.966;2023-11-19T08:09:54;20940.97;;;-145.34;100.00
42285;BME280;27942;47.510;18.966;2023-11-19T08:12:20;21016.56;;;-145.34;100.00
42285;BME280;27942;47.510;18.966;2023-11-19T08:14:45;20938.94;;;-145.34;100.00
42285;BME280;27942;47.510;18.966;2023-11-19T08:17:10;21043.09;;;-145.34;100.00
42285;BME280;27942;47.510;18.966;2023-11-19T08:19:36;21028.81;;;-145.34;100.00
42285;BME280;27942;47.510;18.966;2023-11-19T08:22:01;21124.81;;;-145.34;100.00
42285;BME280;27942;47.510;18.966;2023-11-19T08:24:27;21032.91;;;-145.34;100.00
42285;BME280;27942;47.510;18.966;2023-11-19T08:26:53;21057.41;;;-145.34;100.00
42285;BME280;27942;47.510;18.966;2023-11-19T08:29:19;21045.16;;;-145.34;100.00
42285;BME280;27942;47.510;18.966;2023-11-19T08:31:44;21032.91;;;-145.34;100.00
42285;BME280;27942;47.510;18.966;2023-11-19T08:34:11;21020.63;;;-145.34;100.00
42285;BME280;27942;47.510;18.966;2023-11-19T08:36:37;20981.81;;;-145.34;100.00
42285;BME280;27942;47.510;18.966;2023-11-19T08:39:03;21067.63;;;-145.34;100.00
42285;BME280;27942;47.510;18.966;2023-11-19T08:41:28;21094.19;;;-145.34;100.00
42285;BME280;27942;47.510;18.966;2023-11-19T08:43:54;21106.44;;;-145.34;100.00
42285;BME280;27942;47.510;18.966;2023-11-19T08:46:19;21130.94;;;-145.34;100.00
42285;BME280;27942;47.510;18.966;2023-11-19T08:48:45;21122.78;;;-145.34;100.00
42285;BME280;27942;47.510;18.966;2023-11-19T08:51:11;21118.69;;;-145.34;100.00
42285;BME280;27942;47.510;18.966;2023-11-19T08:53:37;21067.63;;;-145.34;100.00
42285;BME280;27942;47.510;18.966;2023-11-19T08:56:02;21118.69;;;-145.34;100.00
42285;BME280;27942;47.510;18.966;2023-11-19T08:58:28;21083.97;;;-145.34;100.00
42285;BME280;27942;47.510;18.966;2023-11-19T09:00:53;21141.16;;;-145.34;100.00
42285;BME280;27942;47.510;18.966;2023-11-19T09:03:19;21088.03;;;-145.34;100.00
42285;BME280;27942;47.510;18.966;2023-11-19T09:05:45;20971.63;;;-145.34;100.00
42285;BME280;27942;47.510;18.966;2023-11-19T09:08:11;21094.19;;;-145.34;100.00
42285;BME280;27942;47.510;18.966;2023-11-19T09:10:37;21114.59;;;-145.34;100.00
42285;BME280;27942;47.510;18.966;2023-11-19T09:13:02;21067.63;;;-145.34;100.00
42285;BME280;27942;47.510;18.966;2023-11-19T09:15:29;21055.38;;;-145.34;100.00
42285;BME280;27942;47.510;18.966;2023-11-19T09:17:54;21053.31;;;-145.34;100.00
42285;BME280;27942;47.510;18.966;2023-11-19T09:20:20;21039.03;;;-145.34;100.00
42285;BME280;27942;47.510;18.966;2023-11-19T09:22:45;21057.41;;;-145.34;100.00
42285;BME280;27942;47.510;18.966;2023-11-19T09:25:11;21016.56;;;-145.34;100.00
42285;BME280;27942;47.510;18.966;2023-11-19T09:27:37;21008.38;;;-145.34;100.00
42285;BME280;27942;47.510;18.966;2023-11-19T09:30:02;21043.09;;;-145.34;100.00
42285;BME280;27942;47.510;18.966;2023-11-19T09:32:29;21051.28;;;-145.34;100.00
42285;BME280;27942;47.510;18.966;2023-11-19T09:34:54;21063.53;;;-145.34;100.00
42285;BME280;27942;47.510;18.966;2023-11-19T09:37:19;21049.22;;;-145.34;100.00
42285;BME280;27942;47.510;18.966;2023-11-19T09:39:45;21024.72;;;-145.34;100.00
42285;BME280;27942;47.510;18.966;2023-11-19T09:42:11;21081.91;;;-145.34;100.00
42285;BME280;27942;47.510;18.966;2023-11-19T09:44:38;21083.97;;;-145.34;100.00
42285;BME280;27942;47.510;18.966;2023-11-19T09:47:04;21102.34;;;-145.34;100.00
42285;BME280;27942;47.510;18.966;2023-11-19T09:49:30;21130.94;;;-145.34;100.00
42285;BME280;27942;47.510;18.966;2023-11-19T09:51:56;21100.31;;;-145.34;100.00
42285;BME280;27942;47.510;18.966;2023-11-19T09:54:22;21034.94;;;-145.34;100.00
42285;BME280;27942;47.510;18.966;2023-11-19T09:56:47;21079.88;;;-145.34;100.00
42285;BME280;27942;47.510;18.966;2023-11-19T09:59:14;21061.50;;;-145.34;100.00
42285;BME280;27942;47.510;18.966;2023-11-19T10:01:39;21061.50;;;-145.34;100.00
42285;BME280;27942;47.510;18.966;2023-11-19T10:04:06;21016.56;;;-145.34;100.00
42285;BME280;27942;47.510;18.966;2023-11-19T10:06:31;21036.97;;;-145.34;100.00
42285;BME280;27942;47.510;18.966;2023-11-19T10:08:57;21086.00;;;-145.34;100.00
42285;BME280;27942;47.510;18.966;2023-11-19T10:11:22;21092.13;;;-145.34;100.00
42285;BME280;27942;47.510;18.966;2023-11-19T10:13:48;21116.66;;;-145.34;100.00
42285;BME280;27942;47.510;18.966;2023-11-19T10:16:14;21124.81;;;-145.34;100.00
42285;BME280;27942;47.510;18.966;2023-11-19T10:18:48;21135.03;;;-145.34;100.00
42285;BME280;27942;47.510;18.966;2023-11-19T10:21:17;21112.56;;;-145.34;100.00
42285;BME280;27942;47.510;18.966;2023-11-19T10:23:51;21122.78;;;-145.34;100.00
42285;BME280;27942;47.510;18.966;2023-11-19T10:26:18;21098.25;;;-145.34;100.00
42285;BME280;27942;47.510;18.966;2023-11-19T10:28:45;21139.13;;;-145.34;100.00
42285;BME280;27942;47.510;18.966;2023-11-19T10:31:13;21077.84;;;-145.34;100.00
42285;BME280;27942;47.510;18.966;2023-11-19T10:33:38;21081.91;;;-145.34;100.00
42285;BME280;27942;47.510;18.966;2023-11-19T10:36:04;21126.84;;;-145.34;100.00
42285;BME280;27942;47.510;18.966;2023-11-19T10:38:30;21130.94;;;-145.34;100.00
42285;BME280;27942;47.510;18.966;2023-11-19T10:40:56;21143.19;;;-145.34;100.00
42285;BME280;27942;47.510;18.966;2023-11-19T10:43:22;21147.28;;;-145.34;100.00
42285;BME280;27942;47.510;18.966;2023-11-19T10:45:48;21118.69;;;-145.34;100.00
42285;BME280;27942;47.510;18.966;2023-11-19T10:48:14;21065.56;;;-145.34;100.00
42285;BME280;27942;47.510;18.966;2023-11-19T10:50:44;21079.88;;;-145.34;100.00
42285;BME280;27942;47.510;18.966;2023-11-19T10:53:11;21090.09;;;-145.34;100.00
42285;BME280;27942;47.510;18.966;2023-11-19T10:55:39;21065.56;;;-145.34;100.00
42285;BME280;27942;47.510;18.966;2023-11-19T10:58:06;21086.00;;;-145.34;100.00
42285;BME280;27942;47.510;18.966;2023-11-19T11:00:45;21094.19;;;-145.34;100.00
42285;BME280;27942;47.510;18.966;2023-11-19T11:03:17;21118.69;;;-145.34;100.00
42285;BME280;27942;47.510;18.966;2023-11-19T11:05:43;21167.72;;;-145.34;100.00
42285;BME280;27942;47.510;18.966;2023-11-19T11:08:12;21147.28;;;-145.34;100.00
42285;BME280;27942;47.510;18.966;2023-11-19T11:10:59;21116.66;;;-145.34;100.00
42285;BME280;27942;47.510;18.966;2023-11-19T11:13:26;21163.63;;;-145.34;100.00
42285;BME280;27942;47.510;18.966;2023-11-19T11:15:55;21208.56;;;-145.34;100.00
42285;BME280;27942;47.510;18.966;2023-11-19T11:18:24;21173.84;;;-145.34;100.00
42285;BME280;27942;47.510;18.966;2023-11-19T11:20:53;21155.47;;;-145.34;100.00
42285;BME280;27942;47.510;18.966;2023-11-19T11:39:40;21188.13;;;-145.34;100.00
42285;BME280;27942;47.510;18.966;2023-11-19T11:45:16;21106.44;;;-145.34;100.00
42285;BME280;27942;47.510;18.966;2023-11-19T11:50:14;21169.75;;;-145.34;100.00
42285;BME280;27942;47.510;18.966;2023-11-19T11:55:36;21210.59;;;-145.34;100.00
42285;BME280;27942;47.510;18.966;2023-11-19T11:58:03;21188.13;;;-145.34;100.00
42285;BME280;27942;47.510;18.966;2023-11-19T12:03:02;21171.78;;;-145.34;100.00
42285;BME280;27942;47.510;18.966;2023-11-19T12:05:29;21120.72;;;-145.34;100.00
42285;BME280;27942;47.510;18.966;2023-11-19T12:08:03;21190.19;;;-145.34;100.00
42285;BME280;27942;47.510;18.966;2023-11-19T12:10:31;21184.06;;;-145.34;100.00
42285;BME280;27942;47.510;18.966;2023-11-19T12:13:00;21196.31;;;-145.34;100.00
42285;BME280;27942;47.510;18.966;2023-11-19T12:15:26;21190.19;;;-145.34;100.00
42285;BME280;27942;47.510;18.966;2023-11-19T12:17:56;21200.41;;;-145.34;100.00
42285;BME280;27942;47.510;18.966;2023-11-19T12:20:25;21186.09;;;-145.34;100.00
42285;BME280;27942;47.510;18.966;2023-11-19T12:22:52;21163.63;;;-145.34;100.00
42285;BME280;27942;47.510;18.966;2023-11-19T12:25:19;21163.63;;;-145.34;100.00
42285;BME280;27942;47.510;18.966;2023-11-19T12:27:50;21079.88;;;-145.34;100.00
42285;BME280;27942;47.510;18.966;2023-11-19T12:30:26;21088.03;;;-145.34;100.00
42285;BME280;27942;47.510;18.966;2023-11-19T12:32:53;21088.03;;;-145.34;100.00
42285;BME280;27942;47.510;18.966;2023-11-19T12:35:22;21141.16;;;-145.34;100.00
42285;BME280;27942;47.510;18.966;2023-11-19T12:37:51;21122.78;;;-145.34;100.00
42285;BME280;27942;47.510;18.966;2023-11-19T12:40:19;21130.94;;;-145.34;100.00
42285;BME280;27942;47.510;18.966;2023-11-19T12:42:46;21110.50;;;-145.34;100.00
42285;BME280;27942;47.510;18.966;2023-11-19T12:45:12;21043.09;;;-145.34;100.00